Terminal Aerodrome Forecast
Issued by NWS Tallahassee, FL

Home | Current Version | Previous Version | Text Only | Print | Product List | Glossary On
Versions: 1 2 3 4 5 6 7 8 9 10 11 12 13 14 15 16 17 18
000
FTUS42 KTAE 272049 AAB
TAFTLH
TAF AMD
KTLH 272049Z 2721/2818 36006KT P6SM -RA VCTS BKN020 OVC050CB
     FM280800 08007KT 4SM TSRA BKN007 OVC025CB
     FM281200 09009KT 2SM -SHRA BR OVC003
     FM281600 10007KT 6SM -RA OVC007=

USA.gov is the U.S. government's official web portal to all federal, state and local government web resources and services.